Main page
METAR-TAF:

METAR-TAF

Airports :

Almería, Spain

Almería Airport

latitude: 36-51N, longitude: 002-23W, elevation: 15 m

Current weather observation

The report was made 49 minutes ago, at 19:30 UTC
Wind 8 kt from the West/Southwest
Temperature 11°C
Humidity 71%
Pressure 1026 hPa
Visibility 10 km or more
no clouds below 1500 m and no cumulonimbus

METAR: LEAM 181930Z 25008KT CAVOK 11/06 Q1026

Time: 21:19 (20:19 UTC)

Forecast

The report was made 6 hours and 19 minutes ago, at 14:00 UTC
Forecast valid from 18 at 15 UTC to 19 at 15 UTC
Wind 8 kt from the South/Southwest
Visibility 10 km or more
no clouds below 1500 m and no cumulonimbus
Becoming
from 18 at 22 UTC to 18 at 24 UTC
Wind 10 kt from the North/Northwest

TAF: LEAM 181400Z 1815/1915 21008KT CAVOK TX17/1914Z TN07/1907Z BECMG 1822/1824 34010KT

Weather observations and forecasts of more than 4000 airports (METAR and TAF reports).

The available stations are represented by yellow and red dots on the map.

Hover mouse over dot to see the name of the station.

Then click to see weather observations and forecasts.

To change the map : click on the green buttons with a black cross to zoom in, on the green button with a dash to zoom out, or on the green arrows for adjacent maps.


METAR-TAF: